sensor_id;sensor_type;location;lat;lon;timestamp;temperature;humidity
20546;DHT22;10431;50.228;9.112;2023-10-13T00:01:22;19.30;99.90
20546;DHT22;10431;50.228;9.112;2023-10-13T00:03:50;19.20;99.90
20546;DHT22;10431;50.228;9.112;2023-10-13T00:06:18;19.20;99.90
20546;DHT22;10431;50.228;9.112;2023-10-13T00:08:45;19.20;99.90
20546;DHT22;10431;50.228;9.112;2023-10-13T00:11:13;19.20;99.90
20546;DHT22;10431;50.228;9.112;2023-10-13T00:13:39;19.20;99.90
20546;DHT22;10431;50.228;9.112;2023-10-13T00:16:10;19.20;99.90
20546;DHT22;10431;50.228;9.112;2023-10-13T00:18:42;19.20;99.90
20546;DHT22;10431;50.228;9.112;2023-10-13T00:21:11;19.20;99.90
20546;DHT22;10431;50.228;9.112;2023-10-13T00:23:40;19.20;99.90
20546;DHT22;10431;50.228;9.112;2023-10-13T00:26:28;19.20;99.90
20546;DHT22;10431;50.228;9.112;2023-10-13T00:28:57;19.20;99.90
20546;DHT22;10431;50.228;9.112;2023-10-13T00:31:37;19.20;99.90
20546;DHT22;10431;50.228;9.112;2023-10-13T00:34:04;19.20;99.90
20546;DHT22;10431;50.228;9.112;2023-10-13T00:36:57;19.20;99.90
20546;DHT22;10431;50.228;9.112;2023-10-13T00:39:43;19.20;99.90
20546;DHT22;10431;50.228;9.112;2023-10-13T00:42:13;19.20;99.90
20546;DHT22;10431;50.228;9.112;2023-10-13T00:44:49;19.20;99.90
20546;DHT22;10431;50.228;9.112;2023-10-13T00:47:18;19.20;99.90
20546;DHT22;10431;50.228;9.112;2023-10-13T00:50:05;19.20;99.90
20546;DHT22;10431;50.228;9.112;2023-10-13T00:52:33;19.10;99.90
20546;DHT22;10431;50.228;9.112;2023-10-13T00:55:02;19.10;99.90
20546;DHT22;10431;50.228;9.112;2023-10-13T00:57:30;19.20;99.90
20546;DHT22;10431;50.228;9.112;2023-10-13T00:59:57;19.20;99.90
20546;DHT22;10431;50.228;9.112;2023-10-13T01:02:24;19.20;99.90
20546;DHT22;10431;50.228;9.112;2023-10-13T01:05:05;19.10;99.90
20546;DHT22;10431;50.228;9.112;2023-10-13T01:07:36;19.20;99.90
20546;DHT22;10431;50.228;9.112;2023-10-13T01:10:09;19.20;99.90
20546;DHT22;10431;50.228;9.112;2023-10-13T01:12:39;19.20;99.90
20546;DHT22;10431;50.228;9.112;2023-10-13T01:15:10;19.20;99.90
20546;DHT22;10431;50.228;9.112;2023-10-13T01:17:37;19.20;99.90
20546;DHT22;10431;50.228;9.112;2023-10-13T01:20:04;19.20;99.90
20546;DHT22;10431;50.228;9.112;2023-10-13T01:22:31;19.10;99.90
20546;DHT22;10431;50.228;9.112;2023-10-13T01:24:58;19.20;99.90
20546;DHT22;10431;50.228;9.112;2023-10-13T01:27:40;19.20;99.90
20546;DHT22;10431;50.228;9.112;2023-10-13T01:30:07;19.20;99.90
20546;DHT22;10431;50.228;9.112;2023-10-13T01:32:36;19.20;99.90
20546;DHT22;10431;50.228;9.112;2023-10-13T01:35:11;19.20;99.90
20546;DHT22;10431;50.228;9.112;2023-10-13T01:37:37;19.10;99.90
20546;DHT22;10431;50.228;9.112;2023-10-13T01:40:04;19.20;99.90
20546;DHT22;10431;50.228;9.112;2023-10-13T01:42:30;19.10;99.90
20546;DHT22;10431;50.228;9.112;2023-10-13T01:44:56;19.10;99.90
20546;DHT22;10431;50.228;9.112;2023-10-13T01:47:34;19.10;99.90
20546;DHT22;10431;50.228;9.112;2023-10-13T01:50:00;19.10;99.90
20546;DHT22;10431;50.228;9.112;2023-10-13T01:52:40;19.10;99.90
20546;DHT22;10431;50.228;9.112;2023-10-13T01:55:08;19.10;99.90
20546;DHT22;10431;50.228;9.112;2023-10-13T01:57:37;19.10;99.90
20546;DHT22;10431;50.228;9.112;2023-10-13T02:00:03;19.10;99.90
20546;DHT22;10431;50.228;9.112;2023-10-13T02:02:45;19.10;99.90
20546;DHT22;10431;50.228;9.112;2023-10-13T02:05:11;19.10;99.90
20546;DHT22;10431;50.228;9.112;2023-10-13T02:07:38;19.10;99.90
20546;DHT22;10431;50.228;9.112;2023-10-13T02:10:05;19.10;99.90
20546;DHT22;10431;50.228;9.112;2023-10-13T02:12:32;19.10;99.90
20546;DHT22;10431;50.228;9.112;2023-10-13T02:15:12;19.10;99.90
20546;DHT22;10431;50.228;9.112;2023-10-13T02:17:46;19.10;99.90
20546;DHT22;10431;50.228;9.112;2023-10-13T02:20:18;19.10;99.90
20546;DHT22;10431;50.228;9.112;2023-10-13T02:22:44;19.10;99.90
20546;DHT22;10431;50.228;9.112;2023-10-13T02:25:16;19.10;99.90
20546;DHT22;10431;50.228;9.112;2023-10-13T02:28:02;19.10;99.90
20546;DHT22;10431;50.228;9.112;2023-10-13T02:30:28;19.10;99.90
20546;DHT22;10431;50.228;9.112;2023-10-13T02:32:55;19.10;99.90
20546;DHT22;10431;50.228;9.112;2023-10-13T02:35:22;19.10;99.90
20546;DHT22;10431;50.228;9.112;2023-10-13T02:37:57;19.10;99.90
20546;DHT22;10431;50.228;9.112;2023-10-13T02:40:24;19.10;99.90
20546;DHT22;10431;50.228;9.112;2023-10-13T02:42:50;19.10;99.90
20546;DHT22;10431;50.228;9.112;2023-10-13T02:45:16;19.10;99.90
20546;DHT22;10431;50.228;9.112;2023-10-13T02:47:47;19.10;99.90
20546;DHT22;10431;50.228;9.112;2023-10-13T02:50:34;19.10;99.90
20546;DHT22;10431;50.228;9.112;2023-10-13T02:53:00;19.10;99.90
20546;DHT22;10431;50.228;9.112;2023-10-13T02:55:26;19.10;99.90
20546;DHT22;10431;50.228;9.112;2023-10-13T02:57:54;19.10;99.90
20546;DHT22;10431;50.228;9.112;2023-10-13T03:00:22;19.00;99.90
20546;DHT22;10431;50.228;9.112;2023-10-13T03:02:49;19.00;99.90
20546;DHT22;10431;50.228;9.112;2023-10-13T03:05:24;19.00;99.90
20546;DHT22;10431;50.228;9.112;2023-10-13T03:07:50;19.10;99.90
20546;DHT22;10431;50.228;9.112;2023-10-13T03:10:17;19.00;99.90
20546;DHT22;10431;50.228;9.112;2023-10-13T03:12:45;19.00;99.90
20546;DHT22;10431;50.228;9.112;2023-10-13T03:15:14;19.00;99.90
20546;DHT22;10431;50.228;9.112;2023-10-13T03:17:44;19.00;99.90
20546;DHT22;10431;50.228;9.112;2023-10-13T03:20:14;19.00;99.90
20546;DHT22;10431;50.228;9.112;2023-10-13T03:22:48;19.00;99.90
20546;DHT22;10431;50.228;9.112;2023-10-13T03:25:18;19.00;99.90
20546;DHT22;10431;50.228;9.112;2023-10-13T03:27:54;19.00;99.90
20546;DHT22;10431;50.228;9.112;2023-10-13T03:30:21;19.00;99.90
20546;DHT22;10431;50.228;9.112;2023-10-13T03:32:55;19.00;99.90
20546;DHT22;10431;50.228;9.112;2023-10-13T03:35:22;19.00;99.90
20546;DHT22;10431;50.228;9.112;2023-10-13T03:37:54;19.00;99.90
20546;DHT22;10431;50.228;9.112;2023-10-13T03:40:21;19.00;99.90
20546;DHT22;10431;50.228;9.112;2023-10-13T03:42:52;19.00;99.90
20546;DHT22;10431;50.228;9.112;2023-10-13T03:45:37;19.00;99.90
20546;DHT22;10431;50.228;9.112;2023-10-13T03:48:16;19.00;99.90
20546;DHT22;10431;50.228;9.112;2023-10-13T03:50:57;19.00;99.90
20546;DHT22;10431;50.228;9.112;2023-10-13T03:53:39;19.00;99.90
20546;DHT22;10431;50.228;9.112;2023-10-13T03:56:26;19.00;99.90
20546;DHT22;10431;50.228;9.112;2023-10-13T03:58:53;19.00;99.90
20546;DHT22;10431;50.228;9.112;2023-10-13T04:01:21;19.00;99.90
20546;DHT22;10431;50.228;9.112;2023-10-13T04:04:00;19.00;99.90
20546;DHT22;10431;50.228;9.112;2023-10-13T04:06:35;19.00;99.90
20546;DHT22;10431;50.228;9.112;2023-10-13T04:09:24;19.00;99.90
20546;DHT22;10431;50.228;9.112;2023-10-13T04:14:33;19.00;99.90
20546;DHT22;10431;50.228;9.112;2023-10-13T04:17:18;19.00;99.90
20546;DHT22;10431;50.228;9.112;2023-10-13T04:19:55;19.00;99.90
20546;DHT22;10431;50.228;9.112;2023-10-13T04:22:40;19.00;99.90
20546;DHT22;10431;50.228;9.112;2023-10-13T04:25:17;19.00;99.90
20546;DHT22;10431;50.228;9.112;2023-10-13T04:28:06;19.00;99.90
20546;DHT22;10431;50.228;9.112;2023-10-13T04:30:53;19.00;99.90
20546;DHT22;10431;50.228;9.112;2023-10-13T04:33:28;19.00;99.90
20546;DHT22;10431;50.228;9.112;2023-10-13T04:36:07;19.00;99.90
20546;DHT22;10431;50.228;9.112;2023-10-13T04:41:36;19.00;99.90
20546;DHT22;10431;50.228;9.112;2023-10-13T04:44:24;19.00;99.90
20546;DHT22;10431;50.228;9.112;2023-10-13T04:46:57;19.00;99.90
20546;DHT22;10431;50.228;9.112;2023-10-13T04:49:28;19.00;99.90
20546;DHT22;10431;50.228;9.112;2023-10-13T04:51:56;19.00;99.90
20546;DHT22;10431;50.228;9.112;2023-10-13T04:54:37;19.00;99.90
20546;DHT22;10431;50.228;9.112;2023-10-13T04:57:22;19.00;99.90
20546;DHT22;10431;50.228;9.112;2023-10-13T05:00:20;19.00;99.90
20546;DHT22;10431;50.228;9.112;2023-10-13T05:02:47;19.00;99.90
20546;DHT22;10431;50.228;9.112;2023-10-13T05:05:32;19.00;99.90
20546;DHT22;10431;50.228;9.112;2023-10-13T05:08:13;19.00;99.90
20546;DHT22;10431;50.228;9.112;2023-10-13T05:11:03;19.00;99.90
20546;DHT22;10431;50.228;9.112;2023-10-13T05:13:48;19.00;99.90
20546;DHT22;10431;50.228;9.112;2023-10-13T05:16:33;19.00;99.90
20546;DHT22;10431;50.228;9.112;2023-10-13T05:22:10;19.00;99.90
20546;DHT22;10431;50.228;9.112;2023-10-13T05:24:55;18.90;99.90
20546;DHT22;10431;50.228;9.112;2023-10-13T05:27:40;18.90;99.90
20546;DHT22;10431;50.228;9.112;2023-10-13T05:30:25;18.90;99.90
20546;DHT22;10431;50.228;9.112;2023-10-13T05:33:10;18.80;99.90
20546;DHT22;10431;50.228;9.112;2023-10-13T05:35:55;18.80;99.90
20546;DHT22;10431;50.228;9.112;2023-10-13T05:38:41;18.80;99.90
20546;DHT22;10431;50.228;9.112;2023-10-13T05:41:26;18.80;99.90
20546;DHT22;10431;50.228;9.112;2023-10-13T05:44:11;18.80;99.90
20546;DHT22;10431;50.228;9.112;2023-10-13T05:46:55;18.80;99.90
20546;DHT22;10431;50.228;9.112;2023-10-13T05:49:48;18.70;99.90
20546;DHT22;10431;50.228;9.112;2023-10-13T05:52:19;18.70;99.90
20546;DHT22;10431;50.228;9.112;2023-10-13T05:54:47;18.60;99.90
20546;DHT22;10431;50.228;9.112;2023-10-13T05:57:51;18.60;99.90
20546;DHT22;10431;50.228;9.112;2023-10-13T06:00:41;18.40;99.90
20546;DHT22;10431;50.228;9.112;2023-10-13T06:03:26;18.40;99.90
20546;DHT22;10431;50.228;9.112;2023-10-13T06:06:11;18.50;99.90
20546;DHT22;10431;50.228;9.112;2023-10-13T06:08:55;18.60;99.90
20546;DHT22;10431;50.228;9.112;2023-10-13T06:11:40;18.60;99.90
20546;DHT22;10431;50.228;9.112;2023-10-13T06:14:25;18.70;99.90
20546;DHT22;10431;50.228;9.112;2023-10-13T06:17:10;18.70;99.90
20546;DHT22;10431;50.228;9.112;2023-10-13T06:19:55;18.70;99.90
20546;DHT22;10431;50.228;9.112;2023-10-13T06:22:40;18.80;99.90
20546;DHT22;10431;50.228;9.112;2023-10-13T06:25:25;18.80;99.90
20546;DHT22;10431;50.228;9.112;2023-10-13T06:28:10;18.80;99.90
20546;DHT22;10431;50.228;9.112;2023-10-13T06:30:57;18.80;99.90
20546;DHT22;10431;50.228;9.112;2023-10-13T06:33:24;18.80;99.90
20546;DHT22;10431;50.228;9.112;2023-10-13T06:35:57;18.80;99.90
20546;DHT22;10431;50.228;9.112;2023-10-13T06:38:24;18.80;99.90
20546;DHT22;10431;50.228;9.112;2023-10-13T06:40:50;18.80;99.90
20546;DHT22;10431;50.228;9.112;2023-10-13T06:43:18;18.80;99.90
20546;DHT22;10431;50.228;9.112;2023-10-13T06:45:48;18.80;99.90
20546;DHT22;10431;50.228;9.112;2023-10-13T06:48:27;18.80;99.90
20546;DHT22;10431;50.228;9.112;2023-10-13T06:50:53;18.80;99.90
20546;DHT22;10431;50.228;9.112;2023-10-13T06:53:22;18.80;99.90
20546;DHT22;10431;50.228;9.112;2023-10-13T06:55:48;18.80;99.90
20546;DHT22;10431;50.228;9.112;2023-10-13T06:58:18;18.80;99.90
20546;DHT22;10431;50.228;9.112;2023-10-13T07:00:50;18.80;99.90
20546;DHT22;10431;50.228;9.112;2023-10-13T07:03:20;18.80;99.90
20546;DHT22;10431;50.228;9.112;2023-10-13T07:05:47;18.80;99.90
20546;DHT22;10431;50.228;9.112;2023-10-13T07:08:17;18.80;99.90
20546;DHT22;10431;50.228;9.112;2023-10-13T07:10:55;18.80;99.90
20546;DHT22;10431;50.228;9.112;2023-10-13T07:13:29;18.80;99.90
20546;DHT22;10431;50.228;9.112;2023-10-13T07:15:55;18.80;99.90
20546;DHT22;10431;50.228;9.112;2023-10-13T07:18:31;18.80;99.90
20546;DHT22;10431;50.228;9.112;2023-10-13T07:21:03;18.80;99.90
20546;DHT22;10431;50.228;9.112;2023-10-13T07:23:36;18.80;99.90
20546;DHT22;10431;50.228;9.112;2023-10-13T07:26:04;18.80;99.90
20546;DHT22;10431;50.228;9.112;2023-10-13T07:28:31;18.80;99.90
20546;DHT22;10431;50.228;9.112;2023-10-13T07:30:57;18.80;99.90
20546;DHT22;10431;50.228;9.112;2023-10-13T07:33:26;18.80;99.90
20546;DHT22;10431;50.228;9.112;2023-10-13T07:36:01;18.80;99.90
20546;DHT22;10431;50.228;9.112;2023-10-13T07:38:27;18.80;99.90
20546;DHT22;10431;50.228;9.112;2023-10-13T07:40:57;18.80;99.90
20546;DHT22;10431;50.228;9.112;2023-10-13T07:43:33;18.90;99.90
20546;DHT22;10431;50.228;9.112;2023-10-13T07:45:59;18.90;99.90
20546;DHT22;10431;50.228;9.112;2023-10-13T07:48:25;18.90;99.90
20546;DHT22;10431;50.228;9.112;2023-10-13T07:51:02;18.90;99.90
20546;DHT22;10431;50.228;9.112;2023-10-13T07:53:32;18.90;99.90
20546;DHT22;10431;50.228;9.112;2023-10-13T07:56:05;18.90;99.90
20546;DHT22;10431;50.228;9.112;2023-10-13T07:58:38;18.90;99.90
20546;DHT22;10431;50.228;9.112;2023-10-13T08:01:19;18.90;99.90
20546;DHT22;10431;50.228;9.112;2023-10-13T08:03:48;18.90;99.90
20546;DHT22;10431;50.228;9.112;2023-10-13T08:06:30;18.90;99.90
20546;DHT22;10431;50.228;9.112;2023-10-13T08:08:56;18.90;99.90
20546;DHT22;10431;50.228;9.112;2023-10-13T08:11:36;18.90;99.90
20546;DHT22;10431;50.228;9.112;2023-10-13T08:14:05;18.90;99.90
20546;DHT22;10431;50.228;9.112;2023-10-13T08:16:39;18.90;99.90
20546;DHT22;10431;50.228;9.112;2023-10-13T08:19:13;19.00;99.90
20546;DHT22;10431;50.228;9.112;2023-10-13T08:21:45;19.00;99.90
20546;DHT22;10431;50.228;9.112;2023-10-13T08:24:26;19.00;99.90
20546;DHT22;10431;50.228;9.112;2023-10-13T08:27:17;19.10;99.90
20546;DHT22;10431;50.228;9.112;2023-10-13T08:29:59;19.20;99.90
20546;DHT22;10431;50.228;9.112;2023-10-13T08:32:29;19.20;99.90
20546;DHT22;10431;50.228;9.112;2023-10-13T08:34:57;19.30;99.90
20546;DHT22;10431;50.228;9.112;2023-10-13T08:37:23;19.30;99.90
20546;DHT22;10431;50.228;9.112;2023-10-13T08:39:51;19.30;99.90
20546;DHT22;10431;50.228;9.112;2023-10-13T08:42:31;19.40;99.90
20546;DHT22;10431;50.228;9.112;2023-10-13T08:45:08;19.40;99.90
20546;DHT22;10431;50.228;9.112;2023-10-13T08:47:56;19.40;99.90
20546;DHT22;10431;50.228;9.112;2023-10-13T08:50:47;19.40;99.90
20546;DHT22;10431;50.228;9.112;2023-10-13T08:58:44;19.50;99.90
20546;DHT22;10431;50.228;9.112;2023-10-13T09:01:26;19.50;99.90
20546;DHT22;10431;50.228;9.112;2023-10-13T09:04:13;19.50;99.90
20546;DHT22;10431;50.228;9.112;2023-10-13T09:06:48;19.50;99.90
20546;DHT22;10431;50.228;9.112;2023-10-13T09:12:19;19.50;99.90
20546;DHT22;10431;50.228;9.112;2023-10-13T09:14:56;19.50;99.90
20546;DHT22;10431;50.228;9.112;2023-10-13T09:17:30;19.50;99.90
20546;DHT22;10431;50.228;9.112;2023-10-13T09:20:09;19.50;99.90
20546;DHT22;10431;50.228;9.112;2023-10-13T09:22:52;19.50;99.90
20546;DHT22;10431;50.228;9.112;2023-10-13T09:25:32;19.60;99.90
20546;DHT22;10431;50.228;9.112;2023-10-13T09:28:03;19.60;99.90
20546;DHT22;10431;50.228;9.112;2023-10-13T09:30:46;19.60;99.90
20546;DHT22;10431;50.228;9.112;2023-10-13T09:33:12;19.60;99.90
20546;DHT22;10431;50.228;9.112;2023-10-13T09:35:54;19.60;99.90
20546;DHT22;10431;50.228;9.112;2023-10-13T09:38:21;19.60;99.90
20546;DHT22;10431;50.228;9.112;2023-10-13T09:40:47;19.60;99.90
20546;DHT22;10431;50.228;9.112;2023-10-13T09:43:17;19.60;99.90
20546;DHT22;10431;50.228;9.112;2023-10-13T09:45:46;19.60;99.90
20546;DHT22;10431;50.228;9.112;2023-10-13T09:51:03;19.60;99.90
20546;DHT22;10431;50.228;9.112;2023-10-13T09:53:33;19.60;99.90
20546;DHT22;10431;50.228;9.112;2023-10-13T09:56:13;19.60;99.90
20546;DHT22;10431;50.228;9.112;2023-10-13T09:58:55;19.60;99.90
20546;DHT22;10431;50.228;9.112;2023-10-13T10:01:28;19.60;99.90
20546;DHT22;10431;50.228;9.112;2023-10-13T10:04:08;19.60;99.90
20546;DHT22;10431;50.228;9.112;2023-10-13T10:06:39;19.60;99.90
20546;DHT22;10431;50.228;9.112;2023-10-13T10:09:08;19.60;99.90
20546;DHT22;10431;50.228;9.112;2023-10-13T10:14:56;19.60;99.90
20546;DHT22;10431;50.228;9.112;2023-10-13T10:17:24;19.60;99.90
20546;DHT22;10431;50.228;9.112;2023-10-13T10:19:56;19.60;99.90
20546;DHT22;10431;50.228;9.112;2023-10-13T10:22:32;19.60;99.90
20546;DHT22;10431;50.228;9.112;2023-10-13T10:25:04;19.70;99.90
20546;DHT22;10431;50.228;9.112;2023-10-13T10:27:55;19.60;99.90
20546;DHT22;10431;50.228;9.112;2023-10-13T10:30:29;19.70;99.90
20546;DHT22;10431;50.228;9.112;2023-10-13T10:33:00;19.70;99.90
20546;DHT22;10431;50.228;9.112;2023-10-13T10:35:27;19.60;99.90
20546;DHT22;10431;50.228;9.112;2023-10-13T10:38:11;19.60;99.90
20546;DHT22;10431;50.228;9.112;2023-10-13T10:40:51;19.60;99.90
20546;DHT22;10431;50.228;9.112;2023-10-13T10:43:28;19.60;99.90
20546;DHT22;10431;50.228;9.112;2023-10-13T10:46:18;19.60;99.90
20546;DHT22;10431;50.228;9.112;2023-10-13T10:48:45;19.60;99.90
20546;DHT22;10431;50.228;9.112;2023-10-13T10:51:14;19.60;99.90
20546;DHT22;10431;50.228;9.112;2023-10-13T10:53:50;19.60;99.90
20546;DHT22;10431;50.228;9.112;2023-10-13T10:56:18;19.60;99.90
20546;DHT22;10431;50.228;9.112;2023-10-13T10:58:58;19.60;99.90
20546;DHT22;10431;50.228;9.112;2023-10-13T11:01:29;19.50;99.90
20546;DHT22;10431;50.228;9.112;2023-10-13T11:04:07;19.60;99.90
20546;DHT22;10431;50.228;9.112;2023-10-13T11:06:48;19.50;99.90
20546;DHT22;10431;50.228;9.112;2023-10-13T11:09:15;19.50;99.90
20546;DHT22;10431;50.228;9.112;2023-10-13T11:14:30;19.50;99.90
20546;DHT22;10431;50.228;9.112;2023-10-13T11:16:57;19.60;99.90
20546;DHT22;10431;50.228;9.112;2023-10-13T11:19:38;19.50;99.90
20546;DHT22;10431;50.228;9.112;2023-10-13T11:22:14;19.50;99.90
20546;DHT22;10431;50.228;9.112;2023-10-13T11:25:04;19.50;99.90
20546;DHT22;10431;50.228;9.112;2023-10-13T11:27:37;19.50;99.90
20546;DHT22;10431;50.228;9.112;2023-10-13T11:30:13;19.50;99.90
20546;DHT22;10431;50.228;9.112;2023-10-13T11:33:09;19.60;99.90
20546;DHT22;10431;50.228;9.112;2023-10-13T11:35:37;19.50;99.90
20546;DHT22;10431;50.228;9.112;2023-10-13T11:41:01;19.50;99.90
20546;DHT22;10431;50.228;9.112;2023-10-13T11:43:42;19.60;99.90
20546;DHT22;10431;50.228;9.112;2023-10-13T11:46:13;19.60;99.90
20546;DHT22;10431;50.228;9.112;2023-10-13T11:48:42;19.50;99.90
20546;DHT22;10431;50.228;9.112;2023-10-13T11:51:13;19.60;99.90
20546;DHT22;10431;50.228;9.112;2023-10-13T11:53:58;19.60;99.90
20546;DHT22;10431;50.228;9.112;2023-10-13T11:56:24;19.60;99.90
20546;DHT22;10431;50.228;9.112;2023-10-13T11:58:51;19.60;99.90
20546;DHT22;10431;50.228;9.112;2023-10-13T12:01:18;19.60;99.90
20546;DHT22;10431;50.228;9.112;2023-10-13T12:03:46;19.60;99.90
20546;DHT22;10431;50.228;9.112;2023-10-13T12:06:32;19.60;99.90
20546;DHT22;10431;50.228;9.112;2023-10-13T12:09:06;19.60;99.90
20546;DHT22;10431;50.228;9.112;2023-10-13T12:11:42;19.60;99.90
20546;DHT22;10431;50.228;9.112;2023-10-13T12:14:14;19.60;99.90
20546;DHT22;10431;50.228;9.112;2023-10-13T12:16:46;19.50;99.90
20546;DHT22;10431;50.228;9.112;2023-10-13T12:19:17;19.50;99.90
20546;DHT22;10431;50.228;9.112;2023-10-13T12:21:46;19.60;99.90
20546;DHT22;10431;50.228;9.112;2023-10-13T12:24:14;19.60;99.90
20546;DHT22;10431;50.228;9.112;2023-10-13T12:27:07;19.50;99.90
20546;DHT22;10431;50.228;9.112;2023-10-13T12:29:48;19.50;99.90
20546;DHT22;10431;50.228;9.112;2023-10-13T12:32:15;19.60;99.90
20546;DHT22;10431;50.228;9.112;2023-10-13T12:34:46;19.60;99.90
20546;DHT22;10431;50.228;9.112;2023-10-13T12:37:34;19.60;99.90
20546;DHT22;10431;50.228;9.112;2023-10-13T12:40:10;19.60;99.90
20546;DHT22;10431;50.228;9.112;2023-10-13T12:42:56;19.80;99.90
20546;DHT22;10431;50.228;9.112;2023-10-13T12:45:47;20.30;99.90
20546;DHT22;10431;50.228;9.112;2023-10-13T12:48:33;20.60;99.90
20546;DHT22;10431;50.228;9.112;2023-10-13T12:51:19;20.80;99.90
20546;DHT22;10431;50.228;9.112;2023-10-13T12:53:55;20.90;99.90
20546;DHT22;10431;50.228;9.112;2023-10-13T12:56:21;21.00;99.90
20546;DHT22;10431;50.228;9.112;2023-10-13T12:58:54;21.00;99.90
20546;DHT22;10431;50.228;9.112;2023-10-13T13:01:22;21.00;99.90
20546;DHT22;10431;50.228;9.112;2023-10-13T13:03:49;21.10;99.90
20546;DHT22;10431;50.228;9.112;2023-10-13T13:06:24;21.10;99.90
20546;DHT22;10431;50.228;9.112;2023-10-13T13:08:55;21.10;99.90
20546;DHT22;10431;50.228;9.112;2023-10-13T13:11:22;21.10;99.90
20546;DHT22;10431;50.228;9.112;2023-10-13T13:13:49;21.10;99.90
20546;DHT22;10431;50.228;9.112;2023-10-13T13:16:16;21.10;99.90
20546;DHT22;10431;50.228;9.112;2023-10-13T13:18:53;21.20;99.90
20546;DHT22;10431;50.228;9.112;2023-10-13T13:21:23;21.20;99.90
20546;DHT22;10431;50.228;9.112;2023-10-13T13:23:53;21.20;99.90
20546;DHT22;10431;50.228;9.112;2023-10-13T13:26:22;21.20;99.90
20546;DHT22;10431;50.228;9.112;2023-10-13T13:28:50;21.20;99.90
20546;DHT22;10431;50.228;9.112;2023-10-13T13:31:20;21.10;99.90
20546;DHT22;10431;50.228;9.112;2023-10-13T13:33:55;20.90;99.90
20546;DHT22;10431;50.228;9.112;2023-10-13T13:36:22;20.70;99.90
20546;DHT22;10431;50.228;9.112;2023-10-13T13:38:48;20.50;99.90
20546;DHT22;10431;50.228;9.112;2023-10-13T13:41:17;20.40;99.90
20546;DHT22;10431;50.228;9.112;2023-10-13T13:43:47;20.30;99.90
20546;DHT22;10431;50.228;9.112;2023-10-13T13:46:17;20.20;99.90
20546;DHT22;10431;50.228;9.112;2023-10-13T13:48:44;20.30;99.90
20546;DHT22;10431;50.228;9.112;2023-10-13T13:51:14;20.20;99.90
20546;DHT22;10431;50.228;9.112;2023-10-13T13:53:41;20.20;99.90
20546;DHT22;10431;50.228;9.112;2023-10-13T13:56:14;20.10;99.90
20546;DHT22;10431;50.228;9.112;2023-10-13T13:58:50;20.10;99.90
20546;DHT22;10431;50.228;9.112;2023-10-13T14:01:17;20.10;99.90
20546;DHT22;10431;50.228;9.112;2023-10-13T14:03:53;20.10;99.90
20546;DHT22;10431;50.228;9.112;2023-10-13T14:06:23;20.10;99.90
20546;DHT22;10431;50.228;9.112;2023-10-13T14:08:57;20.10;99.90
20546;DHT22;10431;50.228;9.112;2023-10-13T14:11:27;20.10;99.90
20546;DHT22;10431;50.228;9.112;2023-10-13T14:14:08;20.10;99.90
20546;DHT22;10431;50.228;9.112;2023-10-13T14:16:41;20.10;99.90
20546;DHT22;10431;50.228;9.112;2023-10-13T14:19:11;20.10;99.90
20546;DHT22;10431;50.228;9.112;2023-10-13T14:21:38;20.10;99.90
20546;DHT22;10431;50.228;9.112;2023-10-13T14:24:04;20.10;99.90
20546;DHT22;10431;50.228;9.112;2023-10-13T14:26:39;20.10;99.90
20546;DHT22;10431;50.228;9.112;2023-10-13T14:29:05;20.10;99.90
20546;DHT22;10431;50.228;9.112;2023-10-13T14:31:35;20.10;99.90
20546;DHT22;10431;50.228;9.112;2023-10-13T14:34:03;20.10;99.90
20546;DHT22;10431;50.228;9.112;2023-10-13T14:36:29;20.10;99.90
20546;DHT22;10431;50.228;9.112;2023-10-13T14:39:01;20.00;99.90
20546;DHT22;10431;50.228;9.112;2023-10-13T14:41:27;20.10;99.90
20546;DHT22;10431;50.228;9.112;2023-10-13T14:43:53;20.00;99.90
20546;DHT22;10431;50.228;9.112;2023-10-13T14:46:22;20.10;99.90
20546;DHT22;10431;50.228;9.112;2023-10-13T14:48:52;20.10;99.90
20546;DHT22;10431;50.228;9.112;2023-10-13T14:51:18;20.00;99.90
20546;DHT22;10431;50.228;9.112;2023-10-13T14:53:46;20.00;99.90
20546;DHT22;10431;50.228;9.112;2023-10-13T14:56:16;20.00;99.90
20546;DHT22;10431;50.228;9.112;2023-10-13T14:58:43;20.00;99.90
20546;DHT22;10431;50.228;9.112;2023-10-13T15:01:17;20.00;99.90
20546;DHT22;10431;50.228;9.112;2023-10-13T15:03:43;20.00;99.90
20546;DHT22;10431;50.228;9.112;2023-10-13T15:06:20;20.10;99.90
20546;DHT22;10431;50.228;9.112;2023-10-13T15:08:47;20.10;99.90
20546;DHT22;10431;50.228;9.112;2023-10-13T15:11:14;20.10;99.90
20546;DHT22;10431;50.228;9.112;2023-10-13T15:13:41;20.10;99.90
20546;DHT22;10431;50.228;9.112;2023-10-13T15:16:19;20.10;99.90
20546;DHT22;10431;50.228;9.112;2023-10-13T15:18:46;20.10;99.90
20546;DHT22;10431;50.228;9.112;2023-10-13T15:21:22;20.10;99.90
20546;DHT22;10431;50.228;9.112;2023-10-13T15:23:49;20.10;99.90
20546;DHT22;10431;50.228;9.112;2023-10-13T15:26:20;20.10;99.90
20546;DHT22;10431;50.228;9.112;2023-10-13T15:28:50;20.00;99.90
20546;DHT22;10431;50.228;9.112;2023-10-13T15:31:19;20.00;99.90
20546;DHT22;10431;50.228;9.112;2023-10-13T15:33:53;20.00;99.90
20546;DHT22;10431;50.228;9.112;2023-10-13T15:36:24;20.10;99.90
20546;DHT22;10431;50.228;9.112;2023-10-13T15:38:50;20.00;99.90
20546;DHT22;10431;50.228;9.112;2023-10-13T15:41:24;20.00;99.90
20546;DHT22;10431;50.228;9.112;2023-10-13T15:43:50;20.10;99.90
20546;DHT22;10431;50.228;9.112;2023-10-13T15:46:23;20.00;99.90
20546;DHT22;10431;50.228;9.112;2023-10-13T15:48:51;20.00;99.90
20546;DHT22;10431;50.228;9.112;2023-10-13T15:51:17;20.00;99.90
20546;DHT22;10431;50.228;9.112;2023-10-13T15:53:44;20.00;99.90
20546;DHT22;10431;50.228;9.112;2023-10-13T15:56:11;20.00;99.90
20546;DHT22;10431;50.228;9.112;2023-10-13T15:58:49;20.00;99.90
20546;DHT22;10431;50.228;9.112;2023-10-13T16:01:16;20.00;99.90
20546;DHT22;10431;50.228;9.112;2023-10-13T16:03:44;20.00;99.90
20546;DHT22;10431;50.228;9.112;2023-10-13T16:06:16;20.20;99.90
20546;DHT22;10431;50.228;9.112;2023-10-13T16:08:44;20.30;99.90
20546;DHT22;10431;50.228;9.112;2023-10-13T16:11:14;20.50;99.90
20546;DHT22;10431;50.228;9.112;2023-10-13T16:13:44;20.60;99.90
20546;DHT22;10431;50.228;9.112;2023-10-13T16:16:29;20.60;99.90
20546;DHT22;10431;50.228;9.112;2023-10-13T16:18:55;20.60;99.90
20546;DHT22;10431;50.228;9.112;2023-10-13T16:21:21;20.50;99.90
20546;DHT22;10431;50.228;9.112;2023-10-13T16:23:48;20.50;99.90
20546;DHT22;10431;50.228;9.112;2023-10-13T16:26:14;20.60;99.90
20546;DHT22;10431;50.228;9.112;2023-10-13T16:28:40;20.50;99.90
20546;DHT22;10431;50.228;9.112;2023-10-13T16:31:08;20.40;99.90
20546;DHT22;10431;50.228;9.112;2023-10-13T16:33:35;20.40;99.90
20546;DHT22;10431;50.228;9.112;2023-10-13T16:36:10;20.40;99.90
20546;DHT22;10431;50.228;9.112;2023-10-13T16:38:37;20.40;99.90